Flugplatz Beilngries

Für EDNC sind keine METAR/TAF Berichte vorhanden.
Es werden die Flugwettermeldungen vom Flugplatz Hohenfels Army Air Field in 33 km Entfernung angezeigt.

Bericht für ETIH

vom 25.01. um 23:01 UTC

kein Wind

Sichtweite 1000 m

feuchter Dunst

gering bewölkt in 1100 ft

Temperatur -1.0°C

Taupunkt -2.0°C

Luftfeuchtigkeit 93%

Luftdruck 1021 hPa

ETIH 252301Z AUTO 00000KT 1000 BR FEW011 M01/M02 A3015 RMK AO2 VIS 1000V1800 SLP241 RVRNO $
Keine Prognose (TAF) verfügbar.
Impressum